Time;durP1;ratioP1;P1;durP2;ratioP2;P2;SDS_P1;SDS_P2;PMS_P1;PMS_P2;Temp;Humidity;BMP_temperature;BMP_pressure;BME280_temperature;BME280_humidity;BME280_pressure;Samples;Min_cycle;Max_cycle;Signal;HPM_P1;HPM_P2
2023/08/25 00:00:39;;;;;;;7.90;3.33;;;21.90;99.90;;;;;;5067480;28;20394;-75
2023/08/25 00:03:05;;;;;;;11.35;3.55;;;21.90;99.90;;;;;;5064694;28;20418;-75
2023/08/25 00:05:39;;;;;;;9.18;4.13;;;21.80;99.90;;;;;;5063442;28;20036;-75
2023/08/25 00:08:05;;;;;;;7.10;4.05;;;21.80;99.90;;;;;;5075208;28;20033;-75
2023/08/25 00:10:30;;;;;;;8.60;5.78;;;21.80;99.90;;;;;;5075998;28;20093;-75
2023/08/25 00:12:56;;;;;;;7.20;5.43;;;21.70;99.90;;;;;;5062465;28;20483;-75
2023/08/25 00:15:21;;;;;;;3.95;3.50;;;21.70;99.90;;;;;;5071376;28;20021;-75
2023/08/25 00:17:47;;;;;;;4.35;3.95;;;21.60;99.90;;;;;;5078205;28;20040;-75
2023/08/25 00:20:13;;;;;;;5.10;4.40;;;21.60;99.90;;;;;;5074705;28;20017;-75
2023/08/25 00:22:39;;;;;;;6.95;4.05;;;21.60;99.90;;;;;;5072197;28;20036;-75
2023/08/25 00:25:05;;;;;;;9.10;4.90;;;21.60;99.90;;;;;;5052907;28;20036;-75
2023/08/25 00:27:30;;;;;;;11.20;4.22;;;21.50;99.90;;;;;;5075504;28;20449;-75
2023/08/25 00:29:56;;;;;;;8.20;3.70;;;21.50;99.90;;;;;;5070351;28;20021;-75
2023/08/25 00:32:21;;;;;;;8.30;3.63;;;21.50;99.90;;;;;;5081341;28;20478;-75
2023/08/25 00:34:47;;;;;;;10.25;4.88;;;21.50;99.90;;;;;;5071545;28;20024;-75
2023/08/25 00:37:12;;;;;;;8.10;4.53;;;21.50;99.90;;;;;;5073960;28;20021;-75
2023/08/25 00:39:38;;;;;;;5.65;4.70;;;21.40;99.90;;;;;;5067793;28;20066;-75
2023/08/25 00:42:04;;;;;;;10.35;5.20;;;21.40;99.90;;;;;;5070317;28;20028;-75
2023/08/25 00:44:29;;;;;;;13.00;4.40;;;21.40;99.90;;;;;;5077162;28;20510;-75
2023/08/25 00:46:55;;;;;;;8.15;5.07;;;21.40;99.90;;;;;;5072875;28;20025;-75
2023/08/25 00:49:22;;;;;;;9.38;4.00;;;21.40;99.90;;;;;;5066966;28;20021;-75
2023/08/25 00:51:49;;;;;;;6.60;4.40;;;21.40;99.90;;;;;;5066992;28;20020;-75
2023/08/25 00:54:14;;;;;;;7.13;4.28;;;21.40;99.90;;;;;;5057025;28;20062;-75
2023/08/25 00:56:40;;;;;;;6.60;4.70;;;21.40;99.90;;;;;;5058205;28;20016;-75
2023/08/25 00:59:05;;;;;;;6.93;4.85;;;21.40;99.90;;;;;;5072258;28;20031;-75
2023/08/25 01:01:31;;;;;;;6.53;4.90;;;21.30;99.90;;;;;;5071562;28;20043;-75
2023/08/25 01:03:57;;;;;;;7.90;3.72;;;21.30;99.90;;;;;;5070180;28;20025;-75
2023/08/25 01:06:23;;;;;;;8.70;3.92;;;21.30;99.90;;;;;;5065727;28;20063;-75
2023/08/25 01:08:49;;;;;;;8.25;4.15;;;21.30;99.90;;;;;;5071447;28;20028;-75
2023/08/25 01:11:26;;;;;;;5.63;3.63;;;21.30;99.90;;;;;;5071647;28;20020;-75
2023/08/25 01:14:13;;;;;;;10.60;4.25;;;21.30;99.90;;;;;;5070132;28;20025;-75
2023/08/25 01:17:00;;;;;;;7.78;3.92;;;21.30;99.90;;;;;;5073196;28;20522;-75
2023/08/25 01:19:46;;;;;;;5.18;3.58;;;21.30;99.90;;;;;;5065957;28;20032;-75
2023/08/25 01:22:16;;;;;;;7.32;4.20;;;21.30;99.90;;;;;;5072927;28;20021;-75
2023/08/25 01:24:46;;;;;;;4.70;3.63;;;21.30;99.90;;;;;;5058742;28;20542;-75
2023/08/25 01:27:12;;;;;;;5.30;3.33;;;21.30;99.90;;;;;;5070915;28;20031;-75
2023/08/25 01:29:46;;;;;;;10.57;4.72;;;21.30;99.90;;;;;;5067941;28;20024;-75
2023/08/25 01:32:11;;;;;;;9.35;3.72;;;21.30;99.90;;;;;;5074512;28;20078;-75
2023/08/25 01:34:38;;;;;;;5.10;4.15;;;21.30;99.90;;;;;;5068524;28;20008;-75
2023/08/25 01:37:13;;;;;;;13.43;3.92;;;21.30;99.90;;;;;;5062327;28;20028;-75
2023/08/25 01:39:42;;;;;;;6.30;4.78;;;21.30;99.90;;;;;;5071327;28;20032;-75
2023/08/25 01:42:08;;;;;;;8.15;4.32;;;21.30;99.90;;;;;;5071699;28;20028;-75
2023/08/25 01:44:36;;;;;;;6.05;3.42;;;21.30;99.90;;;;;;5081403;28;20028;-75
2023/08/25 01:47:05;;;;;;;4.25;3.63;;;21.20;99.90;;;;;;5072597;28;20024;-75
2023/08/25 01:49:32;;;;;;;6.57;3.33;;;21.20;99.90;;;;;;5051146;28;20036;-75
2023/08/25 01:51:59;;;;;;;10.32;3.97;;;21.20;99.90;;;;;;5071444;28;20476;-75
2023/08/25 01:54:24;;;;;;;6.57;3.10;;;21.20;99.90;;;;;;5063677;28;20028;-75
2023/08/25 01:56:50;;;;;;;6.70;4.35;;;21.20;99.90;;;;;;5070551;28;20078;-75
2023/08/25 01:59:15;;;;;;;4.60;2.78;;;21.20;99.90;;;;;;5075548;28;20387;-75
2023/08/25 02:01:41;;;;;;;10.90;4.18;;;21.30;99.90;;;;;;5072738;28;20024;-75
2023/08/25 02:04:07;;;;;;;6.03;3.47;;;21.30;99.90;;;;;;5070740;28;20396;-75
2023/08/25 02:06:32;;;;;;;5.82;4.00;;;21.30;99.90;;;;;;5062221;28;20531;-75
2023/08/25 02:08:58;;;;;;;7.43;3.35;;;21.20;99.90;;;;;;5070953;28;20033;-75
2023/08/25 02:11:23;;;;;;;6.72;4.57;;;21.20;99.90;;;;;;5070913;28;20024;-75
2023/08/25 02:13:49;;;;;;;8.30;3.72;;;21.20;99.90;;;;;;5071805;28;20033;-75
2023/08/25 02:16:14;;;;;;;6.93;3.45;;;21.20;99.90;;;;;;5067473;28;20146;-75
2023/08/25 02:18:40;;;;;;;5.85;3.65;;;21.20;99.90;;;;;;5059334;28;20106;-75
2023/08/25 02:21:06;;;;;;;5.50;4.15;;;21.20;99.90;;;;;;5059854;28;20028;-75
2023/08/25 02:23:32;;;;;;;7.07;3.58;;;21.20;99.90;;;;;;5059079;28;20498;-75
2023/08/25 02:25:57;;;;;;;6.28;3.80;;;21.20;99.90;;;;;;5071636;28;20032;-75
2023/08/25 02:28:23;;;;;;;5.03;2.78;;;21.20;99.90;;;;;;5075478;28;20102;-75
2023/08/25 02:30:48;;;;;;;6.50;3.42;;;21.20;99.90;;;;;;5073256;28;20056;-75
2023/08/25 02:33:15;;;;;;;4.72;3.10;;;21.20;99.90;;;;;;5072624;28;20028;-75
2023/08/25 02:35:41;;;;;;;5.43;2.97;;;21.20;99.90;;;;;;5068204;28;20040;-75
2023/08/25 02:38:09;;;;;;;3.97;3.03;;;21.20;99.90;;;;;;5073436;28;20016;-75
2023/08/25 02:40:35;;;;;;;8.80;3.70;;;21.30;99.90;;;;;;5074242;28;20215;-75
2023/08/25 02:43:04;;;;;;;8.80;3.72;;;21.30;99.90;;;;;;5072606;28;20562;-75
2023/08/25 02:45:31;;;;;;;7.78;4.03;;;21.30;99.90;;;;;;5080657;28;20020;-75
2023/08/25 02:47:56;;;;;;;6.28;2.90;;;21.30;99.90;;;;;;5079457;28;20040;-75
2023/08/25 02:50:23;;;;;;;6.57;3.03;;;21.30;99.90;;;;;;5072188;28;20415;-75
2023/08/25 02:52:49;;;;;;;8.80;2.92;;;21.20;99.90;;;;;;5077735;28;20397;-75
2023/08/25 02:55:16;;;;;;;7.82;3.33;;;21.20;99.90;;;;;;5073478;28;20119;-74
2023/08/25 02:57:45;;;;;;;4.43;2.92;;;21.20;99.90;;;;;;5079177;28;20115;-74
2023/08/25 03:00:25;;;;;;;8.98;3.60;;;21.20;99.90;;;;;;5073128;28;20047;-74
2023/08/25 03:02:52;;;;;;;4.07;3.17;;;21.20;99.90;;;;;;5068019;28;20332;-74
2023/08/25 03:05:18;;;;;;;4.00;3.15;;;21.20;99.90;;;;;;5062217;28;20110;-74
2023/08/25 03:07:44;;;;;;;4.00;3.58;;;21.10;99.90;;;;;;5073915;28;20036;-74
2023/08/25 03:10:10;;;;;;;5.03;3.20;;;21.10;99.90;;;;;;5078003;28;20040;-74
2023/08/25 03:12:35;;;;;;;6.78;3.63;;;21.10;99.90;;;;;;5074823;28;20075;-74
2023/08/25 03:15:01;;;;;;;4.82;3.53;;;21.10;99.90;;;;;;5069763;28;20024;-74
2023/08/25 03:17:27;;;;;;;8.63;4.20;;;21.10;99.90;;;;;;5078713;28;20059;-74
2023/08/25 03:19:53;;;;;;;6.05;3.13;;;21.00;99.90;;;;;;5078049;28;20024;-74
2023/08/25 03:22:19;;;;;;;5.10;3.03;;;21.00;99.90;;;;;;5076214;28;20023;-74
2023/08/25 03:24:44;;;;;;;9.18;3.90;;;20.90;99.90;;;;;;5064183;28;20028;-74
2023/08/25 03:27:10;;;;;;;6.82;5.03;;;20.80;99.90;;;;;;5073908;28;20105;-74
2023/08/25 03:29:36;;;;;;;7.68;3.03;;;20.80;99.90;;;;;;5071918;28;20107;-74
2023/08/25 03:32:02;;;;;;;6.05;3.42;;;20.70;99.90;;;;;;5068671;28;20033;-74
2023/08/25 03:34:29;;;;;;;5.35;3.95;;;20.70;99.90;;;;;;5072491;28;20031;-74
2023/08/25 03:36:54;;;;;;;6.28;4.38;;;20.70;99.90;;;;;;5076679;28;20032;-74
2023/08/25 03:39:20;;;;;;;9.05;5.03;;;20.70;99.90;;;;;;5080009;28;20130;-74
2023/08/25 03:41:45;;;;;;;9.77;7.20;;;20.70;99.90;;;;;;5071474;28;20085;-74
2023/08/25 03:44:11;;;;;;;9.20;4.95;;;20.80;99.90;;;;;;5061166;28;20027;-74
2023/08/25 03:46:36;;;;;;;16.98;7.93;;;20.80;99.90;;;;;;5071240;28;20039;-74
2023/08/25 03:49:02;;;;;;;26.02;19.35;;;20.80;99.90;;;;;;5074292;28;20028;-74
2023/08/25 03:51:28;;;;;;;12.00;7.72;;;20.80;99.90;;;;;;5070080;28;20032;-74
2023/08/25 03:53:53;;;;;;;20.98;12.02;;;20.80;99.90;;;;;;5071525;28;20175;-74
2023/08/25 03:56:19;;;;;;;8.35;5.72;;;20.80;99.90;;;;;;5071286;28;20054;-74
2023/08/25 03:58:45;;;;;;;10.20;5.45;;;20.80;99.90;;;;;;5071386;28;20031;-74
2023/08/25 04:01:11;;;;;;;10.13;6.43;;;20.80;99.90;;;;;;5068510;28;20020;-74
2023/08/25 04:03:36;;;;;;;10.48;6.18;;;20.70;99.90;;;;;;5067255;28;20024;-74
2023/08/25 04:06:02;;;;;;;10.00;7.18;;;20.70;99.90;;;;;;5070931;28;20039;-74
2023/08/25 04:08:28;;;;;;;7.85;5.10;;;20.70;99.90;;;;;;5072154;28;20027;-74
2023/08/25 04:10:53;;;;;;;7.10;4.63;;;20.60;99.90;;;;;;5068742;28;20494;-74
2023/08/25 04:13:19;;;;;;;10.10;6.38;;;20.60;99.90;;;;;;5068497;28;20040;-74
2023/08/25 04:15:52;;;;;;;7.05;5.30;;;20.60;99.90;;;;;;5071192;28;20032;-74
2023/08/25 04:18:18;;;;;;;8.95;4.18;;;20.60;99.90;;;;;;5069489;28;20078;-73
2023/08/25 04:20:43;;;;;;;9.23;5.53;;;20.60;99.90;;;;;;5069361;28;20025;-74
2023/08/25 04:23:09;;;;;;;9.77;4.65;;;20.60;99.90;;;;;;5071761;28;20055;-73
2023/08/25 04:25:34;;;;;;;9.82;5.13;;;20.70;99.90;;;;;;5071879;28;20052;-73
2023/08/25 04:28:00;;;;;;;9.73;4.22;;;20.70;99.90;;;;;;5066035;28;20061;-74
2023/08/25 04:30:25;;;;;;;14.43;5.40;;;20.70;99.90;;;;;;5072254;28;20036;-74
2023/08/25 04:32:52;;;;;;;10.52;4.53;;;20.60;99.90;;;;;;5068118;28;20116;-74
2023/08/25 04:35:18;;;;;;;7.53;4.35;;;20.60;99.90;;;;;;5075838;28;20052;-74
2023/08/25 04:37:47;;;;;;;7.30;4.40;;;20.60;99.90;;;;;;5073957;28;20530;-74
2023/08/25 04:40:14;;;;;;;7.25;5.28;;;20.70;99.90;;;;;;5066725;28;20075;-75
2023/08/25 04:42:40;;;;;;;11.05;5.85;;;20.70;99.90;;;;;;5074320;28;20063;-75
2023/08/25 04:45:06;;;;;;;13.23;4.95;;;20.80;99.90;;;;;;5070026;28;20059;-75
2023/08/25 04:47:32;;;;;;;11.20;5.70;;;20.90;99.90;;;;;;5064170;28;20033;-75
2023/08/25 04:50:02;;;;;;;8.40;4.97;;;20.90;99.90;;;;;;5070743;28;20039;-75
2023/08/25 04:52:27;;;;;;;4.97;3.97;;;21.00;99.90;;;;;;5074222;28;20791;-75
2023/08/25 04:54:53;;;;;;;13.73;4.15;;;21.10;99.90;;;;;;5071634;28;20081;-74
2023/08/25 04:57:18;;;;;;;8.02;3.80;;;21.10;99.90;;;;;;5076608;28;20390;-74
2023/08/25 04:59:44;;;;;;;7.28;4.20;;;21.20;99.90;;;;;;5068912;28;20025;-76
2023/08/25 05:02:09;;;;;;;6.03;3.47;;;21.40;99.90;;;;;;5076232;28;20023;-76
2023/08/25 05:04:35;;;;;;;4.50;3.22;;;21.50;99.90;;;;;;5063261;28;20027;-77
2023/08/25 05:07:00;;;;;;;10.82;3.78;;;21.60;99.90;;;;;;5070478;28;20024;-77
2023/08/25 05:09:26;;;;;;;7.15;3.90;;;21.70;99.90;;;;;;5063196;28;21221;-77
2023/08/25 05:11:51;;;;;;;8.32;4.03;;;21.80;99.90;;;;;;5071542;28;20044;-77
2023/08/25 05:14:17;;;;;;;9.65;4.05;;;22.00;99.90;;;;;;5070987;28;20489;-77
2023/08/25 05:16:42;;;;;;;5.85;3.95;;;22.10;99.90;;;;;;5065150;28;20027;-77
2023/08/25 05:19:09;;;;;;;9.82;3.70;;;22.30;99.90;;;;;;5063086;28;20039;-77
2023/08/25 05:21:35;;;;;;;6.35;4.38;;;22.30;99.90;;;;;;5071516;28;20058;-77
2023/08/25 05:24:19;;;;;;;5.88;3.95;;;22.30;99.90;;;;;;5071605;28;20449;-77
2023/08/25 05:26:51;;;;;;;12.27;4.45;;;22.30;99.90;;;;;;5071138;28;20024;-77
2023/08/25 05:29:17;;;;;;;7.95;5.20;;;22.40;99.90;;;;;;5070745;28;20032;-77
2023/08/25 05:31:43;;;;;;;11.20;5.72;;;22.40;99.90;;;;;;5071544;28;20028;-77
2023/08/25 05:34:09;;;;;;;10.85;5.13;;;22.30;99.90;;;;;;5069131;28;20024;-77
2023/08/25 05:36:34;;;;;;;10.77;5.28;;;22.20;99.90;;;;;;5062934;28;20458;-77
2023/08/25 05:39:01;;;;;;;12.05;6.03;;;22.10;99.90;;;;;;5071249;28;20112;-77
2023/08/25 05:41:26;;;;;;;19.52;6.80;;;22.00;99.90;;;;;;5065940;28;20387;-76
2023/08/25 05:43:52;;;;;;;10.63;7.82;;;21.90;99.90;;;;;;5054035;28;20037;-77
2023/08/25 05:46:17;;;;;;;15.75;9.15;;;21.90;99.90;;;;;;5056872;28;20098;-78
2023/08/25 05:48:43;;;;;;;15.75;11.82;;;21.90;99.90;;;;;;5066809;28;20052;-77
2023/08/25 05:51:08;;;;;;;15.32;7.78;;;21.90;99.90;;;;;;5064297;28;20048;-77
2023/08/25 05:53:34;;;;;;;15.05;8.38;;;21.90;99.90;;;;;;5059021;28;20036;-78
2023/08/25 05:55:59;;;;;;;13.43;8.60;;;21.90;99.90;;;;;;5070094;28;20016;-80
2023/08/25 05:58:25;;;;;;;8.50;5.53;;;21.90;99.90;;;;;;5069119;28;20036;-79
2023/08/25 06:00:50;;;;;;;12.23;4.95;;;22.00;99.90;;;;;;5076368;28;20433;-79
2023/08/25 06:03:16;;;;;;;12.20;7.28;;;21.90;99.90;;;;;;5074930;28;20375;-77
2023/08/25 06:05:42;;;;;;;8.85;4.35;;;22.00;99.90;;;;;;5074340;28;20016;-78
2023/08/25 06:08:08;;;;;;;30.25;20.55;;;22.00;99.90;;;;;;5072969;28;20024;-78
2023/08/25 06:10:35;;;;;;;19.85;9.65;;;22.10;99.90;;;;;;5076962;28;20083;-80
2023/08/25 06:13:00;;;;;;;20.05;11.68;;;22.20;99.90;;;;;;5074366;28;20436;-78
2023/08/25 06:15:26;;;;;;;17.95;7.95;;;22.30;99.90;;;;;;5075700;28;20021;-78
2023/08/25 06:17:51;;;;;;;15.75;10.82;;;22.30;99.90;;;;;;5077705;28;20048;-78
2023/08/25 06:20:17;;;;;;;17.35;8.23;;;22.40;99.90;;;;;;5079164;28;20021;-74
2023/08/25 06:22:43;;;;;;;8.18;5.13;;;22.40;99.90;;;;;;5073574;28;20028;-73
2023/08/25 06:25:09;;;;;;;9.77;4.65;;;22.50;99.90;;;;;;5069697;28;20024;-74
2023/08/25 06:27:35;;;;;;;6.53;3.63;;;22.60;99.90;;;;;;5071280;28;20093;-74
2023/08/25 06:30:02;;;;;;;8.65;4.25;;;22.70;99.90;;;;;;5075131;28;20483;-73
2023/08/25 06:32:28;;;;;;;6.32;4.18;;;22.70;99.90;;;;;;5074595;28;20040;-73
2023/08/25 06:34:54;;;;;;;6.43;3.83;;;22.80;99.90;;;;;;5070357;28;20381;-74
2023/08/25 06:37:19;;;;;;;4.07;2.95;;;22.80;99.90;;;;;;5078124;28;20095;-74
2023/08/25 06:39:46;;;;;;;9.23;3.05;;;22.80;99.90;;;;;;5070861;28;20016;-74
2023/08/25 06:42:11;;;;;;;13.10;3.42;;;22.80;99.90;;;;;;5070475;28;20811;-73
2023/08/25 06:44:37;;;;;;;7.20;3.75;;;22.90;99.90;;;;;;5074515;28;20107;-73
2023/08/25 06:47:03;;;;;;;5.28;2.83;;;22.90;99.80;;;;;;5075161;28;20025;-73
2023/08/25 06:49:28;;;;;;;7.10;3.05;;;23.00;99.70;;;;;;5068530;28;20052;-74
2023/08/25 06:51:54;;;;;;;3.53;2.83;;;23.00;99.50;;;;;;5082284;28;20028;-74
2023/08/25 06:54:21;;;;;;;8.55;3.83;;;23.00;99.50;;;;;;5083193;28;20628;-75
2023/08/25 06:56:47;;;;;;;13.85;7.78;;;23.00;99.50;;;;;;5076945;28;20110;-75
2023/08/25 06:59:14;;;;;;;8.07;3.78;;;23.00;99.50;;;;;;5067210;28;20074;-75
2023/08/25 07:01:40;;;;;;;7.18;3.97;;;23.10;99.20;;;;;;5076142;28;20031;-76
2023/08/25 07:04:05;;;;;;;9.52;4.72;;;23.20;99.20;;;;;;5077234;28;20025;-75
2023/08/25 07:06:31;;;;;;;7.28;3.72;;;23.20;99.30;;;;;;5073819;28;20029;-76
2023/08/25 07:08:56;;;;;;;2.72;2.33;;;23.30;99.10;;;;;;5069970;28;20107;-76
2023/08/25 07:11:22;;;;;;;7.68;3.40;;;23.30;99.00;;;;;;5073987;28;20025;-76
2023/08/25 07:13:48;;;;;;;15.95;8.73;;;23.30;99.00;;;;;;5062914;28;20047;-75
2023/08/25 07:16:14;;;;;;;7.90;4.68;;;23.50;99.00;;;;;;5070344;28;20467;-75
2023/08/25 07:18:39;;;;;;;6.55;4.63;;;23.50;98.70;;;;;;5069317;28;20444;-74
2023/08/25 07:21:06;;;;;;;8.88;5.35;;;23.70;98.70;;;;;;5067872;28;20031;-74
2023/08/25 07:23:31;;;;;;;13.07;8.07;;;23.70;98.40;;;;;;5071142;28;20036;-72
2023/08/25 07:25:57;;;;;;;7.82;5.22;;;23.70;98.60;;;;;;5071505;28;20036;-73
2023/08/25 07:28:23;;;;;;;26.67;18.02;;;23.80;98.60;;;;;;5071047;28;20077;-73
2023/08/25 07:30:51;;;;;;;18.92;14.15;;;23.90;98.40;;;;;;5071815;28;20115;-73
2023/08/25 07:33:16;;;;;;;12.85;8.30;;;24.10;98.40;;;;;;5071325;28;20025;-73
2023/08/25 07:35:42;;;;;;;4.88;2.78;;;24.20;98.20;;;;;;5067859;28;20025;-73
2023/08/25 07:38:10;;;;;;;4.65;3.15;;;24.30;97.50;;;;;;5065067;28;20032;-74
2023/08/25 07:40:36;;;;;;;5.70;2.63;;;24.10;97.70;;;;;;5071681;28;20390;-74
2023/08/25 07:43:02;;;;;;;7.65;4.03;;;24.00;97.80;;;;;;5071231;28;20032;-73
2023/08/25 07:45:29;;;;;;;6.13;3.08;;;24.00;97.90;;;;;;5078750;28;20123;-74
2023/08/25 07:48:01;;;;;;;4.60;2.33;;;24.10;97.70;;;;;;5069860;28;20460;-75
2023/08/25 07:50:30;;;;;;;10.73;6.13;;;24.20;97.60;;;;;;5068613;28;20438;-75
2023/08/25 07:52:56;;;;;;;4.93;2.90;;;24.30;97.70;;;;;;5072665;28;20056;-74
2023/08/25 07:55:22;;;;;;;4.53;3.30;;;24.40;97.50;;;;;;5072419;28;20047;-74
2023/08/25 07:57:48;;;;;;;6.80;3.15;;;24.40;97.50;;;;;;5073043;28;20460;-74
2023/08/25 08:00:18;;;;;;;5.78;2.83;;;24.50;96.90;;;;;;5074194;28;20028;-75
2023/08/25 08:02:48;;;;;;;6.32;3.00;;;24.70;97.00;;;;;;5066021;28;20052;-75
2023/08/25 08:05:15;;;;;;;7.07;3.30;;;24.80;96.80;;;;;;5064492;28;20025;-76
2023/08/25 08:07:42;;;;;;;7.63;3.58;;;24.80;96.70;;;;;;5067841;28;20115;-77
2023/08/25 08:10:08;;;;;;;4.93;3.55;;;24.90;96.80;;;;;;5066511;28;20032;-76
2023/08/25 08:12:34;;;;;;;5.45;3.10;;;25.10;96.70;;;;;;5067206;28;20043;-75
2023/08/25 08:15:00;;;;;;;5.32;2.30;;;25.20;96.30;;;;;;5069544;28;20024;-74
2023/08/25 08:17:25;;;;;;;4.68;2.58;;;25.20;95.90;;;;;;5068760;28;20024;-75
2023/08/25 08:19:51;;;;;;;10.27;3.72;;;25.20;95.90;;;;;;5072033;28;20032;-75
2023/08/25 08:22:17;;;;;;;4.90;2.28;;;25.30;96.10;;;;;;5066311;28;20036;-74
2023/08/25 08:24:49;;;;;;;5.45;2.85;;;25.30;95.80;;;;;;5072944;28;20020;-74
2023/08/25 08:27:15;;;;;;;6.50;2.45;;;25.40;96.10;;;;;;5071530;28;20031;-75
2023/08/25 08:29:42;;;;;;;5.55;2.28;;;25.50;95.80;;;;;;5069706;28;20027;-74
2023/08/25 08:32:08;;;;;;;3.60;2.30;;;25.50;95.40;;;;;;5070989;28;20028;-75
2023/08/25 08:34:33;;;;;;;2.75;2.20;;;25.50;95.40;;;;;;5066527;28;20036;-75
2023/08/25 08:36:59;;;;;;;4.53;2.40;;;25.50;95.30;;;;;;5072163;28;20020;-76
2023/08/25 08:39:25;;;;;;;8.13;3.13;;;25.50;95.40;;;;;;5070684;28;20047;-75
2023/08/25 08:41:52;;;;;;;6.75;3.22;;;25.90;95.50;;;;;;5071310;28;20021;-75
2023/08/25 08:44:19;;;;;;;3.85;2.55;;;26.20;94.90;;;;;;5070549;28;20046;-75
2023/08/25 08:46:47;;;;;;;6.75;3.20;;;26.30;94.60;;;;;;5069713;28;20056;-78
2023/08/25 08:49:13;;;;;;;7.20;2.50;;;26.20;94.60;;;;;;5071921;28;20081;-74
2023/08/25 08:51:44;;;;;;;4.80;3.08;;;26.10;94.50;;;;;;5068042;28;20028;-75
2023/08/25 08:54:10;;;;;;;12.63;8.93;;;25.90;94.70;;;;;;5068202;28;20025;-74
2023/08/25 08:56:35;;;;;;;9.05;4.18;;;26.00;94.90;;;;;;5065882;28;20491;-73
2023/08/25 08:59:05;;;;;;;8.05;5.00;;;26.00;94.70;;;;;;5069099;28;20067;-74
2023/08/25 09:01:33;;;;;;;6.85;4.45;;;26.10;94.80;;;;;;5064271;28;20027;-73
2023/08/25 09:04:02;;;;;;;6.35;2.65;;;26.20;94.60;;;;;;5069949;28;20032;-73
2023/08/25 09:06:35;;;;;;;6.95;2.30;;;26.20;94.50;;;;;;5068879;28;20056;-73
2023/08/25 09:09:08;;;;;;;9.45;3.47;;;26.20;94.60;;;;;;5064158;28;20055;-75
2023/08/25 09:11:35;;;;;;;6.57;3.33;;;26.30;94.40;;;;;;5062953;28;20033;-73
2023/08/25 09:14:04;;;;;;;4.85;3.17;;;26.30;94.50;;;;;;5057888;28;20021;-75
2023/08/25 09:16:33;;;;;;;3.78;2.78;;;26.40;94.40;;;;;;5062501;28;20103;-74
2023/08/25 09:19:05;;;;;;;5.13;2.92;;;26.40;94.40;;;;;;5064131;28;20028;-74
2023/08/25 09:21:31;;;;;;;6.53;3.00;;;26.50;94.60;;;;;;5063895;28;20507;-74
2023/08/25 09:24:01;;;;;;;6.60;3.15;;;26.70;94.30;;;;;;5064481;28;20039;-75
2023/08/25 09:26:29;;;;;;;5.78;2.85;;;26.90;94.30;;;;;;5062091;28;20050;-76
2023/08/25 09:28:57;;;;;;;6.95;2.60;;;27.10;93.90;;;;;;5062266;28;20098;-75
2023/08/25 09:31:27;;;;;;;8.43;2.63;;;27.20;93.90;;;;;;5064355;28;20398;-75
2023/08/25 09:34:00;;;;;;;5.53;3.10;;;27.30;93.70;;;;;;5067067;28;20036;-73
2023/08/25 09:36:26;;;;;;;5.32;2.70;;;27.30;93.30;;;;;;5070880;28;20083;-75
2023/08/25 09:38:52;;;;;;;4.25;2.55;;;27.30;93.20;;;;;;5071318;28;20347;-73
2023/08/25 09:41:28;;;;;;;7.53;2.60;;;27.30;93.10;;;;;;5069432;28;20025;-74
2023/08/25 09:43:58;;;;;;;10.00;2.58;;;27.30;93.30;;;;;;5066629;28;20028;-74
2023/08/25 09:46:33;;;;;;;7.47;2.30;;;27.50;93.20;;;;;;5070607;28;20029;-76
2023/08/25 09:49:07;;;;;;;4.60;2.90;;;27.70;93.00;;;;;;5068579;28;20060;-75
2023/08/25 09:51:39;;;;;;;7.50;2.40;;;27.80;92.80;;;;;;5067361;28;20063;-75
2023/08/25 09:54:12;;;;;;;8.68;3.28;;;28.00;92.30;;;;;;5064356;28;20124;-76
2023/08/25 09:56:38;;;;;;;7.13;2.58;;;28.00;92.50;;;;;;5065037;28;20402;-74
2023/08/25 09:59:05;;;;;;;4.82;2.90;;;28.30;92.40;;;;;;5063709;28;20495;-75
2023/08/25 10:01:33;;;;;;;6.15;2.42;;;28.40;91.80;;;;;;5068674;28;20131;-75
2023/08/25 10:03:59;;;;;;;6.15;3.65;;;28.50;91.90;;;;;;5064667;28;20039;-77
2023/08/25 10:06:24;;;;;;;3.15;2.17;;;28.50;92.00;;;;;;5070608;28;20044;-77
2023/08/25 10:08:50;;;;;;;4.43;2.67;;;28.50;92.00;;;;;;5073260;28;20024;-77
2023/08/25 10:11:20;;;;;;;7.10;2.33;;;28.60;91.80;;;;;;5070403;28;20017;-76
2023/08/25 10:13:50;;;;;;;13.93;2.25;;;28.60;91.70;;;;;;5065111;28;20074;-78
2023/08/25 10:16:17;;;;;;;4.90;2.10;;;28.60;91.60;;;;;;5070899;28;20134;-76
2023/08/25 10:18:45;;;;;;;6.55;2.67;;;28.60;91.20;;;;;;5067908;28;20431;-76
2023/08/25 10:21:14;;;;;;;5.60;2.60;;;28.40;91.20;;;;;;5068868;28;20113;-76
2023/08/25 10:23:42;;;;;;;9.23;3.63;;;28.30;91.40;;;;;;5062254;28;20029;-76
2023/08/25 10:26:08;;;;;;;5.70;2.72;;;28.30;91.20;;;;;;5059942;28;20075;-76
2023/08/25 10:28:34;;;;;;;3.72;2.83;;;28.10;91.40;;;;;;5063107;28;20095;-76
2023/08/25 10:31:00;;;;;;;5.57;2.63;;;27.80;91.70;;;;;;5068941;28;20747;-77
2023/08/25 10:33:26;;;;;;;7.78;3.42;;;27.70;91.80;;;;;;5062351;28;20573;-76
2023/08/25 10:35:54;;;;;;;4.82;2.78;;;27.40;92.00;;;;;;5064193;28;20024;-75
2023/08/25 10:38:19;;;;;;;4.18;2.40;;;27.20;92.20;;;;;;5062909;28;20932;-76
2023/08/25 10:40:56;;;;;;;5.57;2.95;;;27.00;92.30;;;;;;5067335;28;20027;-75
2023/08/25 10:43:32;;;;;;;8.40;2.40;;;26.80;92.50;;;;;;5063872;28;20063;-74
2023/08/25 10:46:02;;;;;;;6.35;2.53;;;26.70;92.70;;;;;;5065522;28;21143;-74
2023/08/25 10:48:27;;;;;;;5.43;2.90;;;26.50;93.20;;;;;;5068569;28;20048;-73
2023/08/25 10:51:04;;;;;;;6.13;3.00;;;26.50;94.00;;;;;;5065088;28;20032;-73
2023/08/25 10:53:38;;;;;;;6.38;2.65;;;26.30;94.80;;;;;;5067463;28;20158;-73
2023/08/25 10:56:22;;;;;;;6.10;2.70;;;26.20;95.50;;;;;;5067545;28;20054;-73
2023/08/25 10:59:07;;;;;;;6.25;2.95;;;26.00;95.60;;;;;;5064302;28;20040;-73
2023/08/25 11:01:42;;;;;;;6.18;3.10;;;25.80;95.80;;;;;;5069165;28;20107;-73
2023/08/25 11:04:20;;;;;;;3.92;2.97;;;25.70;96.60;;;;;;5064781;28;20052;-74
2023/08/25 11:06:50;;;;;;;4.35;2.70;;;25.70;96.70;;;;;;5064111;28;20032;-73
2023/08/25 11:09:18;;;;;;;5.57;2.75;;;25.90;97.10;;;;;;5064457;28;20103;-73
2023/08/25 11:11:45;;;;;;;5.10;3.00;;;25.90;96.90;;;;;;5066592;28;20037;-73
2023/08/25 11:14:12;;;;;;;5.15;3.40;;;26.00;96.90;;;;;;5068552;28;21473;-73
2023/08/25 11:16:41;;;;;;;6.72;3.75;;;26.10;96.60;;;;;;5065446;28;20158;-73
2023/08/25 11:19:10;;;;;;;4.07;3.03;;;26.00;96.40;;;;;;5069087;28;20036;-72
2023/08/25 11:21:36;;;;;;;4.85;4.32;;;25.80;96.80;;;;;;5063535;28;20024;-73
2023/08/25 11:24:01;;;;;;;7.57;4.00;;;25.70;97.10;;;;;;5068176;28;20024;-73
2023/08/25 11:26:27;;;;;;;6.78;3.85;;;25.50;97.30;;;;;;5067202;28;20461;-72
2023/08/25 11:28:53;;;;;;;10.60;4.93;;;25.30;97.80;;;;;;5066676;28;20040;-72
2023/08/25 11:31:21;;;;;;;6.03;4.13;;;25.20;98.10;;;;;;5065326;28;20033;-73
2023/08/25 11:33:48;;;;;;;7.00;4.25;;;25.00;98.60;;;;;;5067708;28;20129;-72
2023/08/25 11:36:15;;;;;;;6.72;4.30;;;24.90;98.80;;;;;;5066316;28;20526;-72
2023/08/25 11:38:41;;;;;;;4.68;3.88;;;24.70;99.40;;;;;;5063478;28;20070;-72
2023/08/25 11:41:07;;;;;;;4.53;4.13;;;24.60;99.50;;;;;;5065221;28;20119;-71
2023/08/25 11:43:32;;;;;;;5.78;5.10;;;24.50;99.90;;;;;;5067026;28;20273;-72
2023/08/25 11:45:59;;;;;;;7.53;4.80;;;24.40;99.90;;;;;;5064585;28;20125;-72
2023/08/25 11:48:25;;;;;;;9.20;5.15;;;24.20;99.90;;;;;;5064047;28;20059;-73
2023/08/25 11:50:50;;;;;;;9.15;5.30;;;24.10;99.90;;;;;;5066724;28;20035;-73
2023/08/25 11:53:17;;;;;;;10.02;4.50;;;23.90;99.90;;;;;;5068284;28;20346;-72
2023/08/25 11:55:43;;;;;;;8.95;5.57;;;23.80;99.90;;;;;;5065116;28;20103;-71
2023/08/25 11:58:10;;;;;;;7.82;4.70;;;23.80;99.90;;;;;;5064876;28;20059;-72
2023/08/25 12:00:38;;;;;;;8.07;5.13;;;23.70;99.90;;;;;;5063260;28;20454;-73
2023/08/25 12:03:05;;;;;;;11.93;4.45;;;23.70;99.90;;;;;;5059680;28;22058;-72
2023/08/25 12:05:35;;;;;;;7.70;3.90;;;23.60;99.90;;;;;;5064951;28;20467;-73
2023/08/25 12:08:01;;;;;;;6.32;4.47;;;23.50;99.90;;;;;;5064193;28;20028;-73
2023/08/25 12:10:27;;;;;;;5.78;4.63;;;23.40;99.90;;;;;;5068441;28;20411;-74
2023/08/25 12:12:53;;;;;;;8.80;5.00;;;23.40;99.90;;;;;;5065324;28;20032;-73
2023/08/25 12:15:19;;;;;;;10.27;6.35;;;23.30;99.90;;;;;;5065143;28;20024;-78
2023/08/25 12:17:47;;;;;;;19.65;6.55;;;23.10;99.90;;;;;;5063977;28;20453;-78
2023/08/25 12:20:14;;;;;;;11.95;5.85;;;22.80;99.90;;;;;;5064735;28;20032;-79
2023/08/25 12:23:00;;;;;;;7.20;5.80;;;22.40;99.90;;;;;;5066038;28;20033;-80
2023/08/25 12:25:26;;;;;;;9.60;5.60;;;22.10;99.90;;;;;;5063598;28;20033;-79
2023/08/25 12:27:54;;;;;;;9.23;5.80;;;21.90;99.90;;;;;;5065764;28;20035;-78
2023/08/25 12:30:20;;;;;;;10.43;6.20;;;21.80;99.90;;;;;;5063588;28;20032;-78
2023/08/25 12:32:46;;;;;;;7.97;5.68;;;21.80;99.90;;;;;;5067317;28;20620;-78
2023/08/25 12:35:11;;;;;;;9.82;5.32;;;21.70;99.90;;;;;;5066251;28;20031;-79
2023/08/25 12:37:37;;;;;;;9.13;6.55;;;21.70;99.90;;;;;;5065479;28;20501;-78
2023/08/25 12:40:05;;;;;;;9.63;6.50;;;21.70;99.90;;;;;;5064284;28;20502;-78
2023/08/25 12:42:31;;;;;;;14.57;7.45;;;21.80;99.90;;;;;;5066429;28;20025;-77
2023/08/25 12:44:56;;;;;;;16.95;11.93;;;21.90;99.90;;;;;;5065602;28;20028;-78